sensor_id;sensor_type;location;lat;lon;timestamp;P1;durP1;ratioP1;P2;durP2;ratioP2
6463;SDS011;3265;42.694;23.282;2023-06-05T00:00:59;18.13;;;11.47;;
6463;SDS011;3265;42.694;23.282;2023-06-05T00:03:31;21.60;;;13.27;;
6463;SDS011;3265;42.694;23.282;2023-06-05T00:05:58;17.87;;;14.00;;
6463;SDS011;3265;42.694;23.282;2023-06-05T00:08:25;15.93;;;10.00;;
6463;SDS011;3265;42.694;23.282;2023-06-05T00:10:52;14.03;;;9.83;;
6463;SDS011;3265;42.694;23.282;2023-06-05T00:13:20;13.40;;;9.50;;
6463;SDS011;3265;42.694;23.282;2023-06-05T00:15:47;15.17;;;11.53;;
6463;SDS011;3265;42.694;23.282;2023-06-05T00:18:15;18.10;;;12.30;;
6463;SDS011;3265;42.694;23.282;2023-06-05T00:20:42;20.73;;;12.60;;
6463;SDS011;3265;42.694;23.282;2023-06-05T00:23:12;16.23;;;12.97;;
6463;SDS011;3265;42.694;23.282;2023-06-05T00:25:44;20.43;;;13.57;;
6463;SDS011;3265;42.694;23.282;2023-06-05T00:28:11;23.17;;;13.23;;
6463;SDS011;3265;42.694;23.282;2023-06-05T00:30:39;16.30;;;10.90;;
6463;SDS011;3265;42.694;23.282;2023-06-05T00:33:06;18.17;;;11.83;;
6463;SDS011;3265;42.694;23.282;2023-06-05T00:35:33;17.63;;;10.20;;
6463;SDS011;3265;42.694;23.282;2023-06-05T00:38:00;13.83;;;9.70;;
6463;SDS011;3265;42.694;23.282;2023-06-05T00:40:27;17.37;;;9.93;;
6463;SDS011;3265;42.694;23.282;2023-06-05T00:42:54;16.43;;;9.73;;
6463;SDS011;3265;42.694;23.282;2023-06-05T00:45:20;16.03;;;10.43;;
6463;SDS011;3265;42.694;23.282;2023-06-05T00:47:49;11.87;;;9.90;;
6463;SDS011;3265;42.694;23.282;2023-06-05T00:50:16;18.77;;;11.07;;
6463;SDS011;3265;42.694;23.282;2023-06-05T00:52:46;15.73;;;12.00;;
6463;SDS011;3265;42.694;23.282;2023-06-05T00:55:14;15.90;;;10.47;;
6463;SDS011;3265;42.694;23.282;2023-06-05T00:57:42;18.87;;;11.47;;
6463;SDS011;3265;42.694;23.282;2023-06-05T01:00:10;16.77;;;11.13;;
6463;SDS011;3265;42.694;23.282;2023-06-05T01:02:38;18.47;;;11.23;;
6463;SDS011;3265;42.694;23.282;2023-06-05T01:05:07;19.33;;;10.97;;
6463;SDS011;3265;42.694;23.282;2023-06-05T01:07:34;17.07;;;11.03;;
6463;SDS011;3265;42.694;23.282;2023-06-05T01:10:04;20.90;;;11.30;;
6463;SDS011;3265;42.694;23.282;2023-06-05T01:12:35;15.33;;;11.87;;
6463;SDS011;3265;42.694;23.282;2023-06-05T01:15:05;15.87;;;11.43;;
6463;SDS011;3265;42.694;23.282;2023-06-05T01:17:34;21.60;;;11.23;;
6463;SDS011;3265;42.694;23.282;2023-06-05T01:20:01;18.47;;;11.13;;
6463;SDS011;3265;42.694;23.282;2023-06-05T01:22:33;14.13;;;11.23;;
6463;SDS011;3265;42.694;23.282;2023-06-05T01:25:01;20.77;;;11.33;;
6463;SDS011;3265;42.694;23.282;2023-06-05T01:27:30;15.17;;;10.93;;
6463;SDS011;3265;42.694;23.282;2023-06-05T01:30:05;16.10;;;11.30;;
6463;SDS011;3265;42.694;23.282;2023-06-05T01:32:40;18.50;;;11.80;;
6463;SDS011;3265;42.694;23.282;2023-06-05T01:35:12;18.13;;;11.83;;
6463;SDS011;3265;42.694;23.282;2023-06-05T01:37:42;20.20;;;11.23;;
6463;SDS011;3265;42.694;23.282;2023-06-05T01:40:15;16.43;;;10.53;;
6463;SDS011;3265;42.694;23.282;2023-06-05T01:42:43;17.60;;;10.80;;
6463;SDS011;3265;42.694;23.282;2023-06-05T01:45:12;15.60;;;10.60;;
6463;SDS011;3265;42.694;23.282;2023-06-05T01:47:41;15.77;;;10.80;;
6463;SDS011;3265;42.694;23.282;2023-06-05T01:50:09;21.73;;;11.77;;
6463;SDS011;3265;42.694;23.282;2023-06-05T01:52:38;20.23;;;11.23;;
6463;SDS011;3265;42.694;23.282;2023-06-05T01:55:06;20.43;;;11.73;;
6463;SDS011;3265;42.694;23.282;2023-06-05T01:57:41;16.53;;;11.17;;
6463;SDS011;3265;42.694;23.282;2023-06-05T02:00:08;16.83;;;10.57;;
6463;SDS011;3265;42.694;23.282;2023-06-05T02:02:38;18.70;;;11.83;;
6463;SDS011;3265;42.694;23.282;2023-06-05T02:05:07;17.83;;;10.87;;
6463;SDS011;3265;42.694;23.282;2023-06-05T02:07:35;17.40;;;11.63;;
6463;SDS011;3265;42.694;23.282;2023-06-05T02:10:03;18.43;;;11.27;;
6463;SDS011;3265;42.694;23.282;2023-06-05T02:12:30;17.13;;;10.83;;
6463;SDS011;3265;42.694;23.282;2023-06-05T02:14:59;16.10;;;10.77;;
6463;SDS011;3265;42.694;23.282;2023-06-05T02:17:26;17.23;;;10.97;;
6463;SDS011;3265;42.694;23.282;2023-06-05T02:19:54;16.20;;;11.63;;
6463;SDS011;3265;42.694;23.282;2023-06-05T02:22:21;16.70;;;11.07;;
6463;SDS011;3265;42.694;23.282;2023-06-05T02:24:48;17.13;;;12.63;;
6463;SDS011;3265;42.694;23.282;2023-06-05T02:27:17;15.77;;;11.83;;
6463;SDS011;3265;42.694;23.282;2023-06-05T02:29:44;16.97;;;12.23;;
6463;SDS011;3265;42.694;23.282;2023-06-05T02:32:12;20.77;;;12.30;;
6463;SDS011;3265;42.694;23.282;2023-06-05T02:34:39;17.70;;;13.27;;
6463;SDS011;3265;42.694;23.282;2023-06-05T02:37:06;19.87;;;14.10;;
6463;SDS011;3265;42.694;23.282;2023-06-05T02:39:33;27.60;;;15.90;;
6463;SDS011;3265;42.694;23.282;2023-06-05T02:42:00;19.53;;;14.50;;
6463;SDS011;3265;42.694;23.282;2023-06-05T02:44:27;22.53;;;15.17;;
6463;SDS011;3265;42.694;23.282;2023-06-05T02:46:54;22.00;;;15.27;;
6463;SDS011;3265;42.694;23.282;2023-06-05T02:49:22;22.30;;;14.83;;
6463;SDS011;3265;42.694;23.282;2023-06-05T02:51:49;27.63;;;15.13;;
6463;SDS011;3265;42.694;23.282;2023-06-05T02:54:16;23.97;;;15.60;;
6463;SDS011;3265;42.694;23.282;2023-06-05T02:56:43;20.73;;;15.20;;
6463;SDS011;3265;42.694;23.282;2023-06-05T02:59:10;18.40;;;14.63;;
6463;SDS011;3265;42.694;23.282;2023-06-05T03:01:37;25.80;;;15.40;;
6463;SDS011;3265;42.694;23.282;2023-06-05T03:04:08;23.30;;;14.80;;
6463;SDS011;3265;42.694;23.282;2023-06-05T03:06:37;21.73;;;15.17;;
6463;SDS011;3265;42.694;23.282;2023-06-05T03:09:04;20.60;;;14.20;;
6463;SDS011;3265;42.694;23.282;2023-06-05T03:11:31;18.80;;;14.40;;
6463;SDS011;3265;42.694;23.282;2023-06-05T03:13:58;23.20;;;14.67;;
6463;SDS011;3265;42.694;23.282;2023-06-05T03:16:25;22.07;;;14.40;;
6463;SDS011;3265;42.694;23.282;2023-06-05T03:18:57;25.10;;;15.30;;
6463;SDS011;3265;42.694;23.282;2023-06-05T03:21:24;26.80;;;14.93;;
6463;SDS011;3265;42.694;23.282;2023-06-05T03:23:52;22.60;;;14.43;;
6463;SDS011;3265;42.694;23.282;2023-06-05T03:26:19;21.63;;;15.73;;
6463;SDS011;3265;42.694;23.282;2023-06-05T03:28:47;26.07;;;17.83;;
6463;SDS011;3265;42.694;23.282;2023-06-05T03:31:16;28.77;;;19.50;;
6463;SDS011;3265;42.694;23.282;2023-06-05T03:33:44;26.10;;;17.73;;
6463;SDS011;3265;42.694;23.282;2023-06-05T03:36:10;27.50;;;17.10;;
6463;SDS011;3265;42.694;23.282;2023-06-05T03:38:40;28.33;;;18.40;;
6463;SDS011;3265;42.694;23.282;2023-06-05T03:41:08;42.23;;;24.70;;
6463;SDS011;3265;42.694;23.282;2023-06-05T03:43:35;40.17;;;24.20;;
6463;SDS011;3265;42.694;23.282;2023-06-05T03:46:02;39.43;;;23.23;;
6463;SDS011;3265;42.694;23.282;2023-06-05T03:48:29;41.10;;;25.30;;
6463;SDS011;3265;42.694;23.282;2023-06-05T03:50:56;41.43;;;24.93;;
6463;SDS011;3265;42.694;23.282;2023-06-05T03:53:23;39.47;;;24.53;;
6463;SDS011;3265;42.694;23.282;2023-06-05T03:55:54;32.83;;;20.90;;
6463;SDS011;3265;42.694;23.282;2023-06-05T03:58:23;30.13;;;18.93;;
6463;SDS011;3265;42.694;23.282;2023-06-05T04:00:51;28.63;;;19.57;;
6463;SDS011;3265;42.694;23.282;2023-06-05T04:03:19;30.47;;;18.70;;
6463;SDS011;3265;42.694;23.282;2023-06-05T04:05:46;31.60;;;19.00;;
6463;SDS011;3265;42.694;23.282;2023-06-05T04:08:12;27.20;;;19.27;;
6463;SDS011;3265;42.694;23.282;2023-06-05T04:10:39;32.23;;;20.30;;
6463;SDS011;3265;42.694;23.282;2023-06-05T04:13:06;32.40;;;19.37;;
6463;SDS011;3265;42.694;23.282;2023-06-05T04:15:34;34.90;;;19.43;;
6463;SDS011;3265;42.694;23.282;2023-06-05T04:18:02;40.73;;;20.47;;
6463;SDS011;3265;42.694;23.282;2023-06-05T04:20:29;31.77;;;22.33;;
6463;SDS011;3265;42.694;23.282;2023-06-05T04:22:56;40.67;;;23.30;;
6463;SDS011;3265;42.694;23.282;2023-06-05T04:25:22;37.67;;;23.17;;
6463;SDS011;3265;42.694;23.282;2023-06-05T04:27:54;34.33;;;23.60;;
6463;SDS011;3265;42.694;23.282;2023-06-05T04:30:22;37.93;;;22.53;;
6463;SDS011;3265;42.694;23.282;2023-06-05T04:32:51;42.33;;;22.70;;
6463;SDS011;3265;42.694;23.282;2023-06-05T04:35:19;38.13;;;24.40;;
6463;SDS011;3265;42.694;23.282;2023-06-05T04:37:47;33.00;;;22.73;;
6463;SDS011;3265;42.694;23.282;2023-06-05T04:40:15;34.37;;;23.30;;
6463;SDS011;3265;42.694;23.282;2023-06-05T04:42:43;34.60;;;23.63;;
6463;SDS011;3265;42.694;23.282;2023-06-05T04:45:10;37.67;;;24.33;;
6463;SDS011;3265;42.694;23.282;2023-06-05T04:47:37;40.07;;;23.70;;
6463;SDS011;3265;42.694;23.282;2023-06-05T04:50:05;32.40;;;22.97;;
6463;SDS011;3265;42.694;23.282;2023-06-05T04:52:34;32.70;;;23.27;;
6463;SDS011;3265;42.694;23.282;2023-06-05T04:55:01;35.17;;;21.93;;
6463;SDS011;3265;42.694;23.282;2023-06-05T04:57:28;34.10;;;23.33;;
6463;SDS011;3265;42.694;23.282;2023-06-05T04:59:55;34.73;;;23.27;;
6463;SDS011;3265;42.694;23.282;2023-06-05T05:02:23;35.40;;;23.60;;
6463;SDS011;3265;42.694;23.282;2023-06-05T05:04:51;32.83;;;23.57;;
6463;SDS011;3265;42.694;23.282;2023-06-05T05:07:19;36.13;;;23.80;;
6463;SDS011;3265;42.694;23.282;2023-06-05T05:09:48;32.57;;;22.63;;
6463;SDS011;3265;42.694;23.282;2023-06-05T05:12:15;38.60;;;23.13;;
6463;SDS011;3265;42.694;23.282;2023-06-05T05:14:42;34.90;;;22.93;;
6463;SDS011;3265;42.694;23.282;2023-06-05T05:17:09;32.50;;;22.63;;
6463;SDS011;3265;42.694;23.282;2023-06-05T05:19:37;39.77;;;22.07;;
6463;SDS011;3265;42.694;23.282;2023-06-05T05:22:05;35.50;;;22.03;;
6463;SDS011;3265;42.694;23.282;2023-06-05T05:24:34;31.93;;;21.47;;
6463;SDS011;3265;42.694;23.282;2023-06-05T05:27:03;36.37;;;22.47;;
6463;SDS011;3265;42.694;23.282;2023-06-05T05:29:31;32.47;;;21.53;;
6463;SDS011;3265;42.694;23.282;2023-06-05T05:31:58;31.57;;;21.17;;
6463;SDS011;3265;42.694;23.282;2023-06-05T05:34:25;35.77;;;21.63;;
6463;SDS011;3265;42.694;23.282;2023-06-05T05:36:52;32.63;;;20.50;;
6463;SDS011;3265;42.694;23.282;2023-06-05T05:39:18;30.93;;;20.57;;
6463;SDS011;3265;42.694;23.282;2023-06-05T05:41:47;29.77;;;18.73;;
6463;SDS011;3265;42.694;23.282;2023-06-05T05:44:13;26.20;;;18.77;;
6463;SDS011;3265;42.694;23.282;2023-06-05T05:46:41;32.10;;;19.37;;
6463;SDS011;3265;42.694;23.282;2023-06-05T05:49:11;24.30;;;17.43;;
6463;SDS011;3265;42.694;23.282;2023-06-05T05:51:38;27.43;;;18.43;;
6463;SDS011;3265;42.694;23.282;2023-06-05T05:54:05;28.03;;;17.57;;
6463;SDS011;3265;42.694;23.282;2023-06-05T05:56:32;25.30;;;17.63;;
6463;SDS011;3265;42.694;23.282;2023-06-05T05:59:02;28.20;;;17.67;;
6463;SDS011;3265;42.694;23.282;2023-06-05T06:01:29;22.53;;;16.77;;
6463;SDS011;3265;42.694;23.282;2023-06-05T06:03:59;28.47;;;17.23;;
6463;SDS011;3265;42.694;23.282;2023-06-05T06:06:26;22.23;;;16.37;;
6463;SDS011;3265;42.694;23.282;2023-06-05T06:08:52;21.20;;;16.75;;
6463;SDS011;3265;42.694;23.282;2023-06-05T06:11:19;27.37;;;17.80;;
6463;SDS011;3265;42.694;23.282;2023-06-05T06:13:46;29.23;;;16.10;;
6463;SDS011;3265;42.694;23.282;2023-06-05T06:16:15;28.40;;;17.58;;
6463;SDS011;3265;42.694;23.282;2023-06-05T06:18:42;23.58;;;16.50;;
6463;SDS011;3265;42.694;23.282;2023-06-05T06:21:08;29.27;;;16.02;;
6463;SDS011;3265;42.694;23.282;2023-06-05T06:23:35;22.48;;;15.43;;
6463;SDS011;3265;42.694;23.282;2023-06-05T06:26:05;23.50;;;15.13;;
6463;SDS011;3265;42.694;23.282;2023-06-05T06:28:32;25.45;;;15.38;;
6463;SDS011;3265;42.694;23.282;2023-06-05T06:30:59;21.85;;;15.02;;
6463;SDS011;3265;42.694;23.282;2023-06-05T06:33:28;24.75;;;14.68;;
6463;SDS011;3265;42.694;23.282;2023-06-05T06:35:55;21.80;;;14.48;;
6463;SDS011;3265;42.694;23.282;2023-06-05T06:38:23;20.77;;;14.32;;
6463;SDS011;3265;42.694;23.282;2023-06-05T06:40:55;19.95;;;14.48;;
6463;SDS011;3265;42.694;23.282;2023-06-05T06:43:21;20.92;;;14.05;;
6463;SDS011;3265;42.694;23.282;2023-06-05T06:45:48;20.35;;;13.55;;
6463;SDS011;3265;42.694;23.282;2023-06-05T06:48:16;22.25;;;13.98;;
6463;SDS011;3265;42.694;23.282;2023-06-05T06:50:45;21.55;;;13.98;;
6463;SDS011;3265;42.694;23.282;2023-06-05T06:53:13;22.85;;;13.45;;
6463;SDS011;3265;42.694;23.282;2023-06-05T06:55:40;21.48;;;14.55;;
6463;SDS011;3265;42.694;23.282;2023-06-05T06:58:07;21.73;;;13.68;;
6463;SDS011;3265;42.694;23.282;2023-06-05T07:00:33;21.08;;;15.00;;
6463;SDS011;3265;42.694;23.282;2023-06-05T07:03:01;22.50;;;15.45;;
6463;SDS011;3265;42.694;23.282;2023-06-05T07:05:28;20.23;;;14.73;;
6463;SDS011;3265;42.694;23.282;2023-06-05T07:07:58;20.80;;;14.82;;
6463;SDS011;3265;42.694;23.282;2023-06-05T07:10:26;20.95;;;14.90;;
6463;SDS011;3265;42.694;23.282;2023-06-05T07:12:54;18.75;;;13.93;;
6463;SDS011;3265;42.694;23.282;2023-06-05T07:15:20;20.45;;;15.38;;
6463;SDS011;3265;42.694;23.282;2023-06-05T07:17:47;21.10;;;15.73;;
6463;SDS011;3265;42.694;23.282;2023-06-05T07:20:14;22.48;;;15.90;;
6463;SDS011;3265;42.694;23.282;2023-06-05T07:22:42;23.08;;;15.77;;
6463;SDS011;3265;42.694;23.282;2023-06-05T07:25:11;26.77;;;15.77;;
6463;SDS011;3265;42.694;23.282;2023-06-05T07:27:40;20.42;;;15.55;;
6463;SDS011;3265;42.694;23.282;2023-06-05T07:30:09;27.75;;;16.63;;
6463;SDS011;3265;42.694;23.282;2023-06-05T07:32:38;26.25;;;16.92;;
6463;SDS011;3265;42.694;23.282;2023-06-05T07:35:06;27.40;;;16.70;;
6463;SDS011;3265;42.694;23.282;2023-06-05T07:37:34;24.13;;;15.85;;
6463;SDS011;3265;42.694;23.282;2023-06-05T07:40:00;24.30;;;16.05;;
6463;SDS011;3265;42.694;23.282;2023-06-05T07:42:29;24.73;;;16.05;;
6463;SDS011;3265;42.694;23.282;2023-06-05T07:44:56;22.58;;;15.57;;
6463;SDS011;3265;42.694;23.282;2023-06-05T07:47:22;27.52;;;15.90;;
6463;SDS011;3265;42.694;23.282;2023-06-05T07:49:56;22.58;;;16.17;;
6463;SDS011;3265;42.694;23.282;2023-06-05T07:52:24;22.50;;;16.20;;
6463;SDS011;3265;42.694;23.282;2023-06-05T07:54:51;24.27;;;16.60;;
6463;SDS011;3265;42.694;23.282;2023-06-05T07:57:18;23.38;;;16.67;;
6463;SDS011;3265;42.694;23.282;2023-06-05T07:59:47;21.42;;;15.10;;
6463;SDS011;3265;42.694;23.282;2023-06-05T08:02:14;22.10;;;15.77;;
6463;SDS011;3265;42.694;23.282;2023-06-05T08:04:41;23.88;;;15.35;;
6463;SDS011;3265;42.694;23.282;2023-06-05T08:07:08;23.75;;;15.15;;
6463;SDS011;3265;42.694;23.282;2023-06-05T08:09:35;25.70;;;16.42;;
6463;SDS011;3265;42.694;23.282;2023-06-05T08:12:02;22.98;;;14.82;;
6463;SDS011;3265;42.694;23.282;2023-06-05T08:14:30;24.63;;;15.43;;
6463;SDS011;3265;42.694;23.282;2023-06-05T08:16:58;21.10;;;14.93;;
6463;SDS011;3265;42.694;23.282;2023-06-05T08:19:25;23.05;;;15.63;;
6463;SDS011;3265;42.694;23.282;2023-06-05T08:21:52;20.80;;;15.52;;
6463;SDS011;3265;42.694;23.282;2023-06-05T08:24:21;24.52;;;15.48;;
6463;SDS011;3265;42.694;23.282;2023-06-05T08:26:48;25.30;;;15.50;;
6463;SDS011;3265;42.694;23.282;2023-06-05T08:29:15;20.65;;;14.25;;
6463;SDS011;3265;42.694;23.282;2023-06-05T08:31:42;23.67;;;15.77;;
6463;SDS011;3265;42.694;23.282;2023-06-05T08:34:10;20.75;;;14.10;;
6463;SDS011;3265;42.694;23.282;2023-06-05T08:36:37;21.45;;;14.43;;
6463;SDS011;3265;42.694;23.282;2023-06-05T08:39:04;20.70;;;14.43;;
6463;SDS011;3265;42.694;23.282;2023-06-05T08:41:30;19.40;;;14.32;;
6463;SDS011;3265;42.694;23.282;2023-06-05T08:44:00;22.65;;;14.57;;
6463;SDS011;3265;42.694;23.282;2023-06-05T08:46:27;19.08;;;13.20;;
6463;SDS011;3265;42.694;23.282;2023-06-05T08:48:56;20.90;;;14.60;;
6463;SDS011;3265;42.694;23.282;2023-06-05T08:51:24;22.00;;;14.10;;
6463;SDS011;3265;42.694;23.282;2023-06-05T08:53:54;23.58;;;14.32;;
6463;SDS011;3265;42.694;23.282;2023-06-05T08:56:23;19.20;;;12.95;;
6463;SDS011;3265;42.694;23.282;2023-06-05T08:58:52;19.15;;;13.73;;
6463;SDS011;3265;42.694;23.282;2023-06-05T09:01:20;20.17;;;14.05;;
6463;SDS011;3265;42.694;23.282;2023-06-05T09:03:47;18.30;;;13.88;;
6463;SDS011;3265;42.694;23.282;2023-06-05T09:06:13;19.30;;;13.38;;
6463;SDS011;3265;42.694;23.282;2023-06-05T09:08:42;20.08;;;13.00;;
6463;SDS011;3265;42.694;23.282;2023-06-05T09:11:24;19.55;;;13.75;;
6463;SDS011;3265;42.694;23.282;2023-06-05T09:13:53;20.63;;;14.27;;
6463;SDS011;3265;42.694;23.282;2023-06-05T09:16:21;21.65;;;14.07;;
6463;SDS011;3265;42.694;23.282;2023-06-05T09:18:52;17.85;;;13.65;;
6463;SDS011;3265;42.694;23.282;2023-06-05T09:21:20;22.52;;;14.80;;
6463;SDS011;3265;42.694;23.282;2023-06-05T09:23:55;17.60;;;13.73;;
6463;SDS011;3265;42.694;23.282;2023-06-05T09:26:45;21.75;;;14.52;;
6463;SDS011;3265;42.694;23.282;2023-06-05T09:29:13;19.52;;;13.52;;
6463;SDS011;3265;42.694;23.282;2023-06-05T09:31:47;17.17;;;12.65;;
6463;SDS011;3265;42.694;23.282;2023-06-05T09:34:21;19.35;;;12.68;;
6463;SDS011;3265;42.694;23.282;2023-06-05T09:36:49;22.48;;;13.07;;
6463;SDS011;3265;42.694;23.282;2023-06-05T09:39:18;21.05;;;12.15;;
6463;SDS011;3265;42.694;23.282;2023-06-05T09:41:47;18.85;;;13.18;;
6463;SDS011;3265;42.694;23.282;2023-06-05T09:44:16;17.13;;;11.85;;
6463;SDS011;3265;42.694;23.282;2023-06-05T09:46:50;29.98;;;12.60;;
6463;SDS011;3265;42.694;23.282;2023-06-05T09:49:24;17.70;;;12.55;;
6463;SDS011;3265;42.694;23.282;2023-06-05T09:51:51;14.15;;;11.18;;
6463;SDS011;3265;42.694;23.282;2023-06-05T09:54:20;23.25;;;12.00;;
6463;SDS011;3265;42.694;23.282;2023-06-05T09:56:48;15.20;;;11.70;;
6463;SDS011;3265;42.694;23.282;2023-06-05T09:59:19;17.02;;;11.65;;
6463;SDS011;3265;42.694;23.282;2023-06-05T10:01:48;15.40;;;11.02;;
6463;SDS011;3265;42.694;23.282;2023-06-05T10:04:19;19.15;;;11.65;;
6463;SDS011;3265;42.694;23.282;2023-06-05T10:06:48;15.45;;;10.00;;
6463;SDS011;3265;42.694;23.282;2023-06-05T10:09:16;16.02;;;11.20;;
6463;SDS011;3265;42.694;23.282;2023-06-05T10:11:48;17.17;;;10.40;;
6463;SDS011;3265;42.694;23.282;2023-06-05T10:14:16;17.23;;;10.55;;
6463;SDS011;3265;42.694;23.282;2023-06-05T10:16:44;13.18;;;10.18;;
6463;SDS011;3265;42.694;23.282;2023-06-05T10:19:14;15.27;;;10.48;;
6463;SDS011;3265;42.694;23.282;2023-06-05T10:21:43;15.48;;;11.13;;
6463;SDS011;3265;42.694;23.282;2023-06-05T10:24:13;20.88;;;11.48;;
6463;SDS011;3265;42.694;23.282;2023-06-05T10:29:52;16.00;;;11.48;;
6463;SDS011;3265;42.694;23.282;2023-06-05T10:32:34;21.25;;;11.18;;
6463;SDS011;3265;42.694;23.282;2023-06-05T10:35:08;18.55;;;10.88;;
6463;SDS011;3265;42.694;23.282;2023-06-05T10:37:46;18.27;;;9.85;;
6463;SDS011;3265;42.694;23.282;2023-06-05T10:40:21;18.35;;;10.32;;
6463;SDS011;3265;42.694;23.282;2023-06-05T10:42:49;19.83;;;11.38;;
6463;SDS011;3265;42.694;23.282;2023-06-05T10:45:30;18.52;;;12.07;;
6463;SDS011;3265;42.694;23.282;2023-06-05T10:47:57;21.65;;;11.32;;
6463;SDS011;3265;42.694;23.282;2023-06-05T10:50:25;18.73;;;11.82;;
6463;SDS011;3265;42.694;23.282;2023-06-05T10:52:54;17.50;;;11.95;;
6463;SDS011;3265;42.694;23.282;2023-06-05T10:55:23;14.43;;;11.25;;
6463;SDS011;3265;42.694;23.282;2023-06-05T11:03:54;11.27;;;8.77;;
6463;SDS011;3265;42.694;23.282;2023-06-05T11:06:22;12.02;;;9.38;;
6463;SDS011;3265;42.694;23.282;2023-06-05T11:09:08;11.15;;;8.63;;
6463;SDS011;3265;42.694;23.282;2023-06-05T11:14:44;14.60;;;8.88;;
6463;SDS011;3265;42.694;23.282;2023-06-05T11:17:29;12.80;;;8.68;;
6463;SDS011;3265;42.694;23.282;2023-06-05T11:19:56;21.60;;;9.48;;
6463;SDS011;3265;42.694;23.282;2023-06-05T11:22:23;10.30;;;8.27;;
6463;SDS011;3265;42.694;23.282;2023-06-05T11:27:52;7.82;;;6.90;;
6463;SDS011;3265;42.694;23.282;2023-06-05T11:30:21;10.27;;;7.28;;
6463;SDS011;3265;42.694;23.282;2023-06-05T11:32:51;11.98;;;7.28;;
6463;SDS011;3265;42.694;23.282;2023-06-05T11:35:24;9.45;;;7.22;;
6463;SDS011;3265;42.694;23.282;2023-06-05T11:38:06;12.35;;;7.00;;
6463;SDS011;3265;42.694;23.282;2023-06-05T11:40:33;8.45;;;7.20;;
6463;SDS011;3265;42.694;23.282;2023-06-05T11:43:01;9.25;;;6.97;;
6463;SDS011;3265;42.694;23.282;2023-06-05T11:45:29;11.68;;;7.38;;
6463;SDS011;3265;42.694;23.282;2023-06-05T11:48:04;11.13;;;7.50;;
6463;SDS011;3265;42.694;23.282;2023-06-05T11:50:32;10.15;;;6.88;;
6463;SDS011;3265;42.694;23.282;2023-06-05T11:53:05;14.27;;;7.82;;
6463;SDS011;3265;42.694;23.282;2023-06-05T11:55:33;13.63;;;7.22;;
6463;SDS011;3265;42.694;23.282;2023-06-05T11:58:20;9.38;;;6.97;;
6463;SDS011;3265;42.694;23.282;2023-06-05T12:00:47;9.93;;;6.32;;
6463;SDS011;3265;42.694;23.282;2023-06-05T12:03:19;10.30;;;6.55;;
6463;SDS011;3265;42.694;23.282;2023-06-05T12:05:47;7.82;;;6.47;;
6463;SDS011;3265;42.694;23.282;2023-06-05T12:08:21;9.02;;;7.25;;
6463;SDS011;3265;42.694;23.282;2023-06-05T12:10:49;11.70;;;7.95;;
6463;SDS011;3265;42.694;23.282;2023-06-05T12:13:15;9.27;;;7.47;;
6463;SDS011;3265;42.694;23.282;2023-06-05T12:15:42;8.98;;;6.45;;
6463;SDS011;3265;42.694;23.282;2023-06-05T12:18:09;8.18;;;6.10;;
6463;SDS011;3265;42.694;23.282;2023-06-05T12:20:38;6.95;;;5.88;;
6463;SDS011;3265;42.694;23.282;2023-06-05T12:23:06;9.48;;;6.32;;
6463;SDS011;3265;42.694;23.282;2023-06-05T12:25:34;9.15;;;6.53;;
6463;SDS011;3265;42.694;23.282;2023-06-05T12:28:01;13.65;;;7.05;;
6463;SDS011;3265;42.694;23.282;2023-06-05T12:30:39;14.63;;;6.68;;
6463;SDS011;3265;42.694;23.282;2023-06-05T12:33:06;9.85;;;6.18;;
6463;SDS011;3265;42.694;23.282;2023-06-05T12:35:34;8.48;;;6.50;;
6463;SDS011;3265;42.694;23.282;2023-06-05T12:38:02;9.05;;;6.28;;
6463;SDS011;3265;42.694;23.282;2023-06-05T12:40:29;7.80;;;5.95;;
6463;SDS011;3265;42.694;23.282;2023-06-05T12:42:56;8.70;;;6.25;;
6463;SDS011;3265;42.694;23.282;2023-06-05T12:45:22;8.65;;;6.10;;
6463;SDS011;3265;42.694;23.282;2023-06-05T12:47:49;8.60;;;6.50;;
6463;SDS011;3265;42.694;23.282;2023-06-05T12:50:16;7.93;;;6.15;;
6463;SDS011;3265;42.694;23.282;2023-06-05T12:52:44;7.97;;;6.10;;
6463;SDS011;3265;42.694;23.282;2023-06-05T12:55:12;9.05;;;6.78;;
6463;SDS011;3265;42.694;23.282;2023-06-05T12:57:39;10.10;;;6.28;;
6463;SDS011;3265;42.694;23.282;2023-06-05T13:00:06;10.43;;;6.25;;
6463;SDS011;3265;42.694;23.282;2023-06-05T13:02:37;9.60;;;6.05;;
6463;SDS011;3265;42.694;23.282;2023-06-05T13:05:07;7.78;;;5.97;;
6463;SDS011;3265;42.694;23.282;2023-06-05T13:07:35;8.02;;;6.13;;
6463;SDS011;3265;42.694;23.282;2023-06-05T13:10:07;8.98;;;5.82;;
6463;SDS011;3265;42.694;23.282;2023-06-05T13:12:38;9.13;;;5.63;;
6463;SDS011;3265;42.694;23.282;2023-06-05T13:15:06;8.43;;;5.93;;
6463;SDS011;3265;42.694;23.282;2023-06-05T13:17:33;11.77;;;5.50;;
6463;SDS011;3265;42.694;23.282;2023-06-05T13:20:01;7.88;;;5.53;;
6463;SDS011;3265;42.694;23.282;2023-06-05T13:22:31;7.20;;;5.88;;
6463;SDS011;3265;42.694;23.282;2023-06-05T13:24:58;9.60;;;5.40;;
6463;SDS011;3265;42.694;23.282;2023-06-05T13:27:25;5.55;;;4.97;;
6463;SDS011;3265;42.694;23.282;2023-06-05T13:29:53;10.20;;;6.00;;
6463;SDS011;3265;42.694;23.282;2023-06-05T13:32:20;7.93;;;5.53;;
6463;SDS011;3265;42.694;23.282;2023-06-05T13:34:46;10.10;;;5.75;;
6463;SDS011;3265;42.694;23.282;2023-06-05T13:37:13;9.63;;;5.43;;
6463;SDS011;3265;42.694;23.282;2023-06-05T13:39:40;10.48;;;6.13;;
6463;SDS011;3265;42.694;23.282;2023-06-05T13:42:07;9.10;;;5.70;;
6463;SDS011;3265;42.694;23.282;2023-06-05T13:44:35;12.38;;;6.00;;
6463;SDS011;3265;42.694;23.282;2023-06-05T13:47:03;10.77;;;6.00;;
6463;SDS011;3265;42.694;23.282;2023-06-05T13:49:33;8.43;;;5.85;;
6463;SDS011;3265;42.694;23.282;2023-06-05T13:52:00;7.90;;;6.13;;
6463;SDS011;3265;42.694;23.282;2023-06-05T13:54:27;6.90;;;5.55;;
6463;SDS011;3265;42.694;23.282;2023-06-05T13:56:54;12.30;;;5.90;;
6463;SDS011;3265;42.694;23.282;2023-06-05T13:59:21;8.57;;;5.65;;
6463;SDS011;3265;42.694;23.282;2023-06-05T14:01:48;7.43;;;6.35;;
6463;SDS011;3265;42.694;23.282;2023-06-05T14:04:16;10.90;;;6.32;;
6463;SDS011;3265;42.694;23.282;2023-06-05T14:06:43;12.23;;;6.32;;
6463;SDS011;3265;42.694;23.282;2023-06-05T14:09:10;8.90;;;6.18;;
6463;SDS011;3265;42.694;23.282;2023-06-05T14:11:37;11.15;;;5.85;;
6463;SDS011;3265;42.694;23.282;2023-06-05T14:32:26;7.30;;;5.20;;
6463;SDS011;3265;42.694;23.282;2023-06-05T14:34:53;8.30;;;5.57;;
6463;SDS011;3265;42.694;23.282;2023-06-05T14:37:20;9.63;;;5.80;;
6463;SDS011;3265;42.694;23.282;2023-06-05T14:39:46;8.77;;;6.15;;
6463;SDS011;3265;42.694;23.282;2023-06-05T14:42:16;7.65;;;5.13;;
6463;SDS011;3265;42.694;23.282;2023-06-05T14:44:43;10.82;;;6.03;;
6463;SDS011;3265;42.694;23.282;2023-06-05T14:47:09;9.52;;;5.78;;
6463;SDS011;3265;42.694;23.282;2023-06-05T14:49:38;8.98;;;5.72;;
6463;SDS011;3265;42.694;23.282;2023-06-05T14:52:05;10.38;;;5.85;;
6463;SDS011;3265;42.694;23.282;2023-06-05T14:54:32;8.98;;;6.20;;
6463;SDS011;3265;42.694;23.282;2023-06-05T14:56:58;8.68;;;6.32;;
6463;SDS011;3265;42.694;23.282;2023-06-05T14:59:35;16.58;;;6.55;;
6463;SDS011;3265;42.694;23.282;2023-06-05T15:02:05;11.60;;;6.68;;
6463;SDS011;3265;42.694;23.282;2023-06-05T15:04:32;11.48;;;6.60;;
6463;SDS011;3265;42.694;23.282;2023-06-05T15:07:06;13.75;;;7.00;;
6463;SDS011;3265;42.694;23.282;2023-06-05T15:09:34;11.48;;;6.25;;
6463;SDS011;3265;42.694;23.282;2023-06-05T15:12:01;13.40;;;7.03;;
6463;SDS011;3265;42.694;23.282;2023-06-05T15:14:28;11.15;;;6.90;;
6463;SDS011;3265;42.694;23.282;2023-06-05T15:17:00;11.27;;;6.22;;
6463;SDS011;3265;42.694;23.282;2023-06-05T15:19:27;11.75;;;6.93;;
6463;SDS011;3265;42.694;23.282;2023-06-05T15:21:54;9.00;;;6.28;;